McLeod, Texas
Current Conditions -  °F | °C
As of 1:35 AM on Monday 22 Dec 2014 (Local Time) from KASL Reporting Station
Overcast Overcast  
Wind Chill: 53°   Ceiling: 700
Heat Index: 53°   Visibility: 7mi
Dew Point: 50°   Wind: 8mph
Humidity: 90%   Direction: 170°S
Pressure: 29.82"   Gusts: NA
Location:  32.94°N, 94.08°W
Report Text: KASL 220735Z AUTO 17007KT 7SM BKN007 OVC036 12/10 A2982 RMK AO1 T01180102
Loading
Personal Weather Stations






























Interactive Weather Map New forecast layout! Learn more

10-Day Weather Forecast

Advertisements
Track Severe Weather on mobile